createdAt,value
2023-03-18T00:01:29.794Z,99917.00
2023-03-18T00:03:56.300Z,99898.50
2023-03-18T00:06:27.379Z,99897.50
2023-03-18T00:08:56.144Z,99899.13
2023-03-18T00:11:23.296Z,99897.38
2023-03-18T00:13:50.647Z,99904.53
2023-03-18T00:16:17.231Z,99900.09
2023-03-18T00:18:43.760Z,99888.69
2023-03-18T00:21:10.226Z,99891.44
2023-03-18T00:23:38.526Z,99889.88
2023-03-18T00:26:05.419Z,99883.72
2023-03-18T00:28:33.734Z,99878.31
2023-03-18T00:31:05.504Z,99898.88
2023-03-18T00:33:34.149Z,99911.63
2023-03-18T00:36:02.542Z,99889.34
2023-03-18T00:38:31.116Z,99905.34
2023-03-18T00:41:04.285Z,99892.78
2023-03-18T00:43:32.762Z,99896.41
2023-03-18T00:46:01.292Z,99908.88
2023-03-18T00:48:27.877Z,99894.53
2023-03-18T00:50:56.749Z,99905.25
2023-03-18T00:53:25.377Z,99873.25
2023-03-18T00:55:52.139Z,99899.88
2023-03-18T00:58:23.002Z,99894.44
2023-03-18T01:00:49.583Z,99908.78
2023-03-18T01:03:16.013Z,99890.56
2023-03-18T01:05:42.440Z,99900.59
2023-03-18T01:08:09.334Z,99901.50
2023-03-18T01:10:35.975Z,99906.91
2023-03-18T01:13:02.374Z,99904.22
2023-03-18T01:15:32.640Z,99908.78
2023-03-18T01:18:01.908Z,99898.19
2023-03-18T01:20:34.591Z,99899.88
2023-03-18T01:23:03.663Z,99894.53
2023-03-18T01:25:30.482Z,99892.03
2023-03-18T01:28:02.286Z,99889.34
2023-03-18T01:30:36.107Z,99901.19
2023-03-18T01:33:04.609Z,99895.06
2023-03-18T01:35:31.546Z,99885.38
2023-03-18T01:40:27.018Z,99894.28
2023-03-18T01:43:00.910Z,99865.16
2023-03-18T01:45:34.369Z,99887.16
2023-03-18T01:48:01.976Z,99890.75
2023-03-18T01:50:32.982Z,99889.88
2023-03-18T01:53:02.906Z,99879.41
2023-03-18T01:55:33.069Z,99897.00
2023-03-18T01:58:06.913Z,99889.88
2023-03-18T02:00:37.132Z,99898.81
2023-03-18T02:03:04.630Z,99898.81
2023-03-18T02:05:31.391Z,99895.22
2023-03-18T02:07:58.023Z,99904.41
2023-03-18T02:10:34.275Z,99884.88
2023-03-18T02:13:06.327Z,99890.22
2023-03-18T02:15:46.399Z,99895.47
2023-03-18T02:18:17.165Z,99900.75
2023-03-18T02:20:55.136Z,99896.66
2023-03-18T02:23:29.092Z,99900.00
2023-03-18T02:26:03.261Z,99893.81
2023-03-18T02:28:36.758Z,99901.78
2023-03-18T02:31:08.691Z,99871.81
2023-03-18T02:33:38.274Z,99899.22
2023-03-18T02:36:07.124Z,99904.63
2023-03-18T02:38:41.198Z,99909.19
2023-03-18T02:41:13.923Z,99912.84
2023-03-18T02:43:43.033Z,99912.09
2023-03-18T02:46:22.880Z,99906.50
2023-03-18T02:48:50.028Z,99921.66
2023-03-18T02:51:17.493Z,99918.06
2023-03-18T02:53:45.326Z,99917.28
2023-03-18T02:56:12.127Z,99905.72
2023-03-18T02:58:43.428Z,99926.34
2023-03-18T03:01:11.164Z,99924.56
2023-03-18T03:03:38.292Z,99915.91
2023-03-18T03:06:05.971Z,99918.28
2023-03-18T03:08:32.580Z,99920.94
2023-03-18T03:10:59.095Z,99928.00
2023-03-18T03:13:27.811Z,99929.88
2023-03-18T03:15:55.684Z,99920.88
2023-03-18T03:18:22.241Z,99923.66
2023-03-18T03:20:50.514Z,99933.16
2023-03-18T03:23:19.350Z,99926.09
2023-03-18T03:25:48.224Z,99927.69
2023-03-18T03:28:15.179Z,99923.38
2023-03-18T03:30:41.610Z,99936.69
2023-03-18T03:33:09.999Z,99933.75
2023-03-18T03:35:37.503Z,99935.56
2023-03-18T03:38:06.305Z,99906.69
2023-03-18T03:40:33.179Z,99928.88
2023-03-18T03:43:02.160Z,99942.31
2023-03-18T03:45:32.466Z,99952.25
2023-03-18T03:48:01.701Z,99949.38
2023-03-18T03:50:33.933Z,99954.88
2023-03-18T03:53:00.468Z,99947.94
2023-03-18T03:55:28.309Z,99947.94
2023-03-18T03:57:55.296Z,99950.78
2023-03-18T04:00:26.346Z,99951.56
2023-03-18T04:02:55.287Z,99954.31
2023-03-18T04:05:25.190Z,99960.69
2023-03-18T04:07:54.219Z,99951.78
2023-03-18T04:10:33.896Z,99958.94
2023-03-18T04:13:02.405Z,99959.34
2023-03-18T04:15:28.973Z,99959.16
2023-03-18T04:17:55.640Z,99969.94
2023-03-18T04:20:23.624Z,99966.63
2023-03-18T04:22:50.126Z,99970.22
2023-03-18T04:25:20.494Z,99957.19
2023-03-18T04:27:50.323Z,99969.56
2023-03-18T04:30:17.043Z,99963.47
2023-03-18T04:32:55.091Z,99973.03
2023-03-18T04:35:22.684Z,99976.66
2023-03-18T04:37:50.290Z,99975.84
2023-03-18T04:40:17.462Z,99959.88
2023-03-18T04:42:45.341Z,99968.75
2023-03-18T04:45:11.905Z,99968.75
2023-03-18T04:47:38.688Z,99970.53
2023-03-18T04:50:06.151Z,99964.19
2023-03-18T04:52:32.800Z,99973.25
2023-03-18T04:55:01.321Z,99971.56
2023-03-18T04:57:28.119Z,99951.22
2023-03-18T04:59:56.622Z,99962.75
2023-03-18T05:02:24.104Z,99976.28
2023-03-18T05:04:50.587Z,99979.72
2023-03-18T05:07:17.199Z,99972.53
2023-03-18T05:09:54.063Z,99986.84
2023-03-18T05:12:20.597Z,99981.44
2023-03-18T05:14:47.294Z,99989.69
2023-03-18T05:17:16.163Z,99970.28
2023-03-18T05:19:51.476Z,99978.00
2023-03-18T05:22:20.987Z,99979.97
2023-03-18T05:24:51.209Z,99949.06
2023-03-18T05:27:20.153Z,99957.09
2023-03-18T05:29:55.579Z,99964.25
2023-03-18T05:32:33.614Z,99986.22
2023-03-18T05:35:03.070Z,99973.69
2023-03-18T05:37:33.362Z,99964.06
2023-03-18T05:40:06.323Z,99974.47
2023-03-18T05:42:36.653Z,99974.47
2023-03-18T05:45:06.824Z,99962.00
2023-03-18T05:47:36.496Z,99970.84
2023-03-18T05:50:10.038Z,99981.53
2023-03-18T05:52:37.628Z,99977.91
2023-03-18T05:55:13.167Z,99981.44
2023-03-18T05:57:42.625Z,99979.66
2023-03-18T06:00:11.179Z,99977.91
2023-03-18T06:02:46.600Z,99998.44
2023-03-18T06:05:14.729Z,99992.97
2023-03-18T06:07:41.381Z,99999.22
2023-03-18T06:10:09.294Z,99997.34
2023-03-18T06:12:35.793Z,99999.94
2023-03-18T06:15:03.668Z,100013.41
2023-03-18T06:17:36.403Z,100008.84
2023-03-18T06:20:05.375Z,99990.06
2023-03-18T06:22:31.986Z,99973.34
2023-03-18T06:25:03.506Z,99975.81
2023-03-18T06:27:36.258Z,99988.00
2023-03-18T06:30:04.094Z,99998.41
2023-03-18T06:32:34.369Z,100014.50
2023-03-18T06:35:06.348Z,100018.81
2023-03-18T06:37:32.960Z,100017.91
2023-03-18T06:40:07.002Z,100005.56
2023-03-18T06:42:33.743Z,99989.47
2023-03-18T06:45:27.060Z,100010.44
2023-03-18T06:48:04.856Z,100012.22
2023-03-18T06:50:35.729Z,100005.25
2023-03-18T06:53:02.825Z,100024.41
2023-03-18T06:55:35.509Z,100023.16
2023-03-18T06:58:03.607Z,100032.25
2023-03-18T07:00:39.577Z,100036.25
2023-03-18T07:03:07.634Z,100034.34
2023-03-18T07:05:35.577Z,100030.94
2023-03-18T07:08:03.777Z,100025.66
2023-03-18T07:10:34.543Z,100028.56
2023-03-18T07:13:09.975Z,100037.38
2023-03-18T07:15:39.032Z,100061.56
2023-03-18T07:18:05.753Z,100039.38
2023-03-18T07:20:32.290Z,100057.81
2023-03-18T07:23:04.158Z,100056.69
2023-03-18T07:25:33.751Z,100049.41
2023-03-18T07:28:02.209Z,100051.75
2023-03-18T07:30:31.097Z,100047.97
2023-03-18T07:32:59.447Z,100048.63
2023-03-18T07:35:32.933Z,100044.91
2023-03-18T07:38:03.899Z,100055.72
2023-03-18T07:40:36.727Z,100047.00
2023-03-18T07:43:03.516Z,100060.50
2023-03-18T07:45:34.211Z,100051.81
2023-03-18T07:48:06.948Z,100027.88
2023-03-18T07:50:33.517Z,100050.16
2023-03-18T07:53:03.824Z,100054.69
2023-03-18T07:55:36.552Z,100063.28
2023-03-18T07:58:03.338Z,100071.97
2023-03-18T08:00:31.867Z,100068.63
2023-03-18T08:03:02.534Z,100065.28
2023-03-18T08:05:31.006Z,100057.22
2023-03-18T08:08:04.709Z,100052.44
2023-03-18T08:10:32.991Z,100075.53
2023-03-18T08:13:02.701Z,100081.06
2023-03-18T08:15:31.363Z,100091.31
2023-03-18T08:18:02.086Z,100076.53
2023-03-18T08:20:33.263Z,100077.47
2023-03-18T08:23:03.826Z,100076.13
2023-03-18T08:25:30.469Z,100088.75
2023-03-18T08:28:01.033Z,100089.63
2023-03-18T08:30:28.530Z,100091.28
2023-03-18T08:32:55.233Z,100098.34
2023-03-18T08:35:21.704Z,100102.94
2023-03-18T08:37:48.199Z,100091.16
2023-03-18T08:40:16.269Z,100100.22
2023-03-18T08:42:42.738Z,100076.41
2023-03-18T08:45:09.978Z,100109.72
2023-03-18T08:47:36.545Z,100087.22
2023-03-18T08:50:03.162Z,100094.28
2023-03-18T08:52:32.598Z,100102.94
2023-03-18T08:55:02.549Z,100096.25
2023-03-18T08:57:32.335Z,100078.56
2023-03-18T09:00:03.385Z,100090.47
2023-03-18T09:02:34.150Z,100102.97
2023-03-18T09:05:03.769Z,100100.28
2023-03-18T09:07:30.287Z,100108.53
2023-03-18T09:10:04.152Z,100111.09
2023-03-18T09:12:34.337Z,100110.44
2023-03-18T09:15:00.623Z,100114.56
2023-03-18T09:17:40.304Z,100104.03
2023-03-18T09:20:15.576Z,100094.50
2023-03-18T09:22:44.343Z,100109.47
2023-03-18T09:25:11.129Z,100101.09
2023-03-18T09:27:39.016Z,100107.44
2023-03-18T09:30:07.655Z,100094.28
2023-03-18T09:32:34.548Z,100094.91
2023-03-18T09:35:03.202Z,100081.41
2023-03-18T09:37:30.954Z,100096.16
2023-03-18T09:39:57.460Z,100102.22
2023-03-18T09:42:45.896Z,100097.97
2023-03-18T09:45:19.454Z,100111.66
2023-03-18T09:48:06.396Z,100108.78
2023-03-18T09:50:40.468Z,100109.53
2023-03-18T09:53:19.660Z,100093.25
2023-03-18T09:55:48.789Z,100104.25
2023-03-18T09:58:22.070Z,100110.97
2023-03-18T10:00:53.218Z,100113.50
2023-03-18T10:03:29.677Z,100105.41
2023-03-18T10:06:01.341Z,100104.09
2023-03-18T10:08:42.044Z,100101.75
2023-03-18T10:11:17.548Z,100098.44
2023-03-18T10:13:52.221Z,100085.13
2023-03-18T10:16:24.245Z,100088.63
2023-03-18T10:18:50.815Z,100101.28
2023-03-18T10:21:24.944Z,100102.94
2023-03-18T10:23:59.668Z,100109.19
2023-03-18T10:26:31.595Z,100110.06
2023-03-18T10:29:07.503Z,100116.94
2023-03-18T10:31:47.974Z,100110.25
2023-03-18T10:34:16.711Z,100110.25
2023-03-18T10:36:50.353Z,100099.94
2023-03-18T10:39:18.721Z,100107.50
2023-03-18T10:41:48.945Z,100109.69
2023-03-18T10:44:20.593Z,100104.34
2023-03-18T10:46:48.077Z,100110.81
2023-03-18T10:49:19.236Z,100115.44
2023-03-18T10:51:50.374Z,100113.88
2023-03-18T10:54:24.606Z,100105.34
2023-03-18T10:56:51.335Z,100106.97
2023-03-18T10:59:23.548Z,100109.13
2023-03-18T11:01:54.739Z,100082.09
2023-03-18T11:04:23.829Z,100115.00
2023-03-18T11:06:52.619Z,100076.91
2023-03-18T11:09:21.928Z,100102.84
2023-03-18T11:11:50.010Z,100100.53
2023-03-18T11:14:20.953Z,100097.25
2023-03-18T11:16:55.725Z,100098.66
2023-03-18T11:19:37.522Z,100106.34
2023-03-18T11:22:18.866Z,100108.97
2023-03-18T11:24:45.449Z,100098.50
2023-03-18T11:27:34.551Z,100097.50
2023-03-18T11:30:16.659Z,100097.03
2023-03-18T11:32:53.238Z,100087.03
2023-03-18T11:35:23.111Z,100084.44
2023-03-18T11:37:50.966Z,100088.34
2023-03-18T11:40:25.916Z,100085.53
2023-03-18T11:42:57.749Z,100071.69
2023-03-18T11:45:43.450Z,100080.75
2023-03-18T11:48:15.768Z,100091.06
2023-03-18T11:50:53.105Z,100073.28
2023-03-18T11:53:27.828Z,100083.16
2023-03-18T11:56:00.793Z,100088.69
2023-03-18T11:59:08.608Z,100090.00
2023-03-18T12:01:49.547Z,100086.72
2023-03-18T12:04:54.748Z,100083.19
2023-03-18T12:07:48.971Z,100076.94
2023-03-18T12:10:24.029Z,100067.38
2023-03-18T12:13:11.779Z,100068.47
2023-03-18T12:15:47.219Z,100077.78
2023-03-18T12:18:36.887Z,100078.31
2023-03-18T12:21:16.903Z,100079.91
2023-03-18T12:24:00.961Z,100078.88
2023-03-18T12:26:46.311Z,100068.00
2023-03-18T12:29:43.936Z,100085.25
2023-03-18T12:32:24.544Z,100072.38
2023-03-18T12:35:10.478Z,100077.19
2023-03-18T12:37:46.843Z,100054.69
2023-03-18T12:40:41.836Z,100062.50
2023-03-18T12:43:43.339Z,100076.16
2023-03-18T12:46:19.959Z,100055.22
2023-03-18T12:48:52.637Z,100073.34
2023-03-18T12:51:25.396Z,100066.84
2023-03-18T12:53:54.857Z,100054.66
2023-03-18T12:56:24.107Z,100075.63
2023-03-18T12:58:54.300Z,100057.72
2023-03-18T13:01:24.061Z,100055.19
2023-03-18T13:03:52.444Z,100063.00
2023-03-18T13:06:21.453Z,100062.00
2023-03-18T13:09:08.015Z,100040.75
2023-03-18T13:12:05.791Z,100053.13
2023-03-18T13:14:51.690Z,100061.03
2023-03-18T13:17:24.681Z,100053.50
2023-03-18T13:19:51.448Z,100057.09
2023-03-18T13:22:45.317Z,100061.25
2023-03-18T13:25:25.470Z,100041.88
2023-03-18T13:28:07.433Z,100051.25
2023-03-18T13:30:46.633Z,100058.69
2023-03-18T13:33:35.430Z,100047.22
2023-03-18T13:36:25.357Z,100059.88
2023-03-18T13:39:14.288Z,100060.19
2023-03-18T13:42:04.204Z,100054.69
2023-03-18T13:44:41.539Z,100055.91
2023-03-18T13:47:14.183Z,100038.75
2023-03-18T13:49:40.741Z,100043.22
2023-03-18T13:52:23.297Z,100046.41
2023-03-18T13:54:50.166Z,100034.28
2023-03-18T13:57:33.796Z,100037.72
2023-03-18T14:00:23.961Z,100037.38
2023-03-18T14:03:05.932Z,100036.31
2023-03-18T14:05:39.856Z,100029.97
2023-03-18T14:08:46.172Z,100031.59
2023-03-18T14:11:51.295Z,100024.66
2023-03-18T14:14:53.148Z,100024.97
2023-03-18T14:17:34.655Z,100013.66
2023-03-18T14:20:22.307Z,100009.59
2023-03-18T14:22:52.992Z,100017.06
2023-03-18T14:25:25.362Z,100026.00
2023-03-18T14:27:55.083Z,99995.94
2023-03-18T14:30:48.030Z,100024.47
2023-03-18T14:33:42.281Z,100028.63
2023-03-18T14:36:10.499Z,100018.75
2023-03-18T14:38:45.230Z,100030.94
2023-03-18T14:41:20.715Z,100016.53
2023-03-18T14:43:58.087Z,99999.28
2023-03-18T14:46:43.237Z,100017.91
2023-03-18T14:49:35.710Z,100027.97
2023-03-18T14:52:12.055Z,100016.78
2023-03-18T14:54:44.587Z,100011.81
2023-03-18T14:57:11.834Z,100013.75
2023-03-18T14:59:39.686Z,100016.19
2023-03-18T15:02:22.431Z,100001.41
2023-03-18T15:05:04.240Z,99990.53
2023-03-18T15:07:34.918Z,100007.81
2023-03-18T15:10:08.283Z,100003.13
2023-03-18T15:12:43.561Z,100012.28
2023-03-18T15:15:37.719Z,100012.63
2023-03-18T15:18:22.511Z,99989.84
2023-03-18T15:21:07.334Z,99996.09
2023-03-18T15:23:39.834Z,100000.31
2023-03-18T15:26:18.926Z,99991.06
2023-03-18T15:28:50.680Z,100010.75
2023-03-18T15:31:33.045Z,100005.56
2023-03-18T15:34:14.545Z,100015.13
2023-03-18T15:36:45.268Z,100012.53
2023-03-18T15:39:30.134Z,100013.78
2023-03-18T15:41:58.589Z,100000.47
2023-03-18T15:44:30.541Z,100011.28
2023-03-18T15:47:13.095Z,100008.16
2023-03-18T15:49:53.522Z,100008.09
2023-03-18T15:52:23.378Z,100004.97
2023-03-18T15:54:49.963Z,100005.88
2023-03-18T15:57:25.905Z,99995.78
2023-03-18T15:59:53.264Z,100006.63
2023-03-18T16:02:21.699Z,100014.94
2023-03-18T16:04:49.762Z,100007.53
2023-03-18T16:07:18.445Z,100019.16
2023-03-18T16:09:45.443Z,100016.00
2023-03-18T16:12:17.754Z,100022.34
2023-03-18T16:14:46.501Z,100017.97
2023-03-18T16:17:13.304Z,100010.06
2023-03-18T16:19:44.063Z,100009.00
2023-03-18T16:22:12.887Z,100012.59
2023-03-18T16:24:39.757Z,100019.81
2023-03-18T16:27:06.614Z,100007.63
2023-03-18T16:29:36.295Z,100026.81
2023-03-18T16:32:05.280Z,99995.75
2023-03-18T16:34:33.977Z,100016.81
2023-03-18T16:37:03.906Z,100013.25
2023-03-18T16:39:38.208Z,100026.22
2023-03-18T16:42:07.652Z,100016.97
2023-03-18T16:44:36.755Z,100039.75
2023-03-18T16:47:06.194Z,100046.22
2023-03-18T16:49:38.799Z,100031.81
2023-03-18T16:52:05.804Z,100040.56
2023-03-18T16:54:36.792Z,100042.94
2023-03-18T16:57:05.606Z,100026.84
2023-03-18T16:59:38.349Z,100013.47
2023-03-18T17:02:09.337Z,100052.53
2023-03-18T17:04:37.622Z,100045.03
2023-03-18T17:07:07.821Z,100046.31
2023-03-18T17:09:35.969Z,100060.75
2023-03-18T17:12:05.949Z,100063.09
2023-03-18T17:14:44.377Z,100026.53
2023-03-18T17:17:18.197Z,100069.88
2023-03-18T17:19:44.960Z,100056.97
2023-03-18T17:22:21.113Z,100060.28
2023-03-18T17:24:49.139Z,100064.38
2023-03-18T17:27:20.964Z,100070.22
2023-03-18T17:29:49.805Z,100075.94
2023-03-18T17:32:16.585Z,100043.59
2023-03-18T17:34:47.920Z,100063.75
2023-03-18T17:37:14.592Z,100067.47
2023-03-18T17:39:41.644Z,100085.91
2023-03-18T17:42:33.749Z,100068.47
2023-03-18T17:45:07.175Z,100056.97
2023-03-18T17:47:36.887Z,100069.56
2023-03-18T17:50:04.819Z,100057.25
2023-03-18T17:52:33.389Z,100053.22
2023-03-18T17:55:02.754Z,100050.38
2023-03-18T17:57:32.821Z,100079.78
2023-03-18T17:59:59.220Z,100079.16
2023-03-18T18:02:25.747Z,100068.13
2023-03-18T18:04:52.463Z,100086.78
2023-03-18T18:07:21.210Z,100076.31
2023-03-18T18:09:48.191Z,100072.19
2023-03-18T18:12:22.798Z,100052.97
2023-03-18T18:14:51.071Z,100076.19
2023-03-18T18:17:17.912Z,100080.25
2023-03-18T18:19:44.391Z,100075.69
2023-03-18T18:22:16.267Z,100063.88
2023-03-18T18:24:42.877Z,100063.28
2023-03-18T18:27:11.361Z,100077.06
2023-03-18T18:29:37.869Z,100067.72
2023-03-18T18:32:05.841Z,100077.22
2023-03-18T18:34:35.240Z,100073.13
2023-03-18T18:37:05.685Z,100072.84
2023-03-18T18:39:32.454Z,100067.63
2023-03-18T18:42:00.430Z,100052.94
2023-03-18T18:44:27.310Z,100063.75
2023-03-18T18:46:53.931Z,100066.56
2023-03-18T18:49:23.700Z,100070.94
2023-03-18T18:51:50.539Z,100082.47
2023-03-18T18:54:17.091Z,100086.31
2023-03-18T18:56:43.566Z,100071.25
2023-03-18T18:59:19.063Z,100089.38
2023-03-18T19:01:45.610Z,100082.66
2023-03-18T19:04:13.742Z,100092.41
2023-03-18T19:06:41.711Z,100086.00
2023-03-18T19:09:16.445Z,100076.56
2023-03-18T19:11:43.451Z,100077.19
2023-03-18T19:14:21.729Z,100061.97
2023-03-18T19:16:51.842Z,100093.84
2023-03-18T19:19:19.494Z,100085.88
2023-03-18T19:21:53.614Z,100062.38
2023-03-18T19:24:25.789Z,100088.72
2023-03-18T19:27:07.994Z,100099.16
2023-03-18T19:29:38.910Z,100084.09
2023-03-18T19:32:05.806Z,100085.06
2023-03-18T19:34:37.466Z,100063.88
2023-03-18T19:37:05.584Z,100094.56
2023-03-18T19:39:40.463Z,100079.66
2023-03-18T19:42:13.110Z,100076.22
2023-03-18T19:44:39.811Z,100072.06
2023-03-18T19:47:17.697Z,100078.44
2023-03-18T19:49:45.034Z,100088.59
2023-03-18T19:52:21.241Z,100078.28
2023-03-18T19:54:48.704Z,100079.53
2023-03-18T19:57:18.145Z,100087.06
2023-03-18T19:59:47.430Z,100061.81
2023-03-18T20:02:22.089Z,100084.16
2023-03-18T20:04:50.207Z,100080.78
2023-03-18T20:07:19.766Z,100099.81
2023-03-18T20:09:46.777Z,100084.25
2023-03-18T20:12:21.629Z,100105.28
2023-03-18T20:14:48.606Z,100108.59
2023-03-18T20:17:30.048Z,100083.47
2023-03-18T20:20:03.504Z,100114.69
2023-03-18T20:22:37.388Z,100108.75
2023-03-18T20:25:06.078Z,100116.25
2023-03-18T20:27:34.870Z,100092.56
2023-03-18T20:30:10.061Z,100090.38
2023-03-18T20:32:39.320Z,100098.50
2023-03-18T20:35:06.506Z,100130.75
2023-03-18T20:37:34.453Z,100125.44
2023-03-18T20:40:02.390Z,100121.28
2023-03-18T20:42:29.083Z,100122.47
2023-03-18T20:44:55.564Z,100115.88
2023-03-18T20:47:22.163Z,100137.53
2023-03-18T20:49:48.773Z,100131.50
2023-03-18T20:52:27.262Z,100128.25
2023-03-18T20:54:56.021Z,100140.94
2023-03-18T20:57:22.675Z,100131.50
2023-03-18T20:59:49.112Z,100143.28
2023-03-18T21:02:30.482Z,100134.72
2023-03-18T21:04:57.774Z,100134.06
2023-03-18T21:07:24.641Z,100133.34
2023-03-18T21:09:51.151Z,100131.72
2023-03-18T21:12:20.312Z,100124.88
2023-03-18T21:14:47.799Z,100142.97
2023-03-18T21:17:17.698Z,100135.34
2023-03-18T21:19:44.421Z,100132.88
2023-03-18T21:22:14.951Z,100129.59
2023-03-18T21:24:41.576Z,100108.47
2023-03-18T21:27:17.339Z,100150.22
2023-03-18T21:29:45.352Z,100149.53
2023-03-18T21:32:20.893Z,100147.75
2023-03-18T21:34:47.593Z,100132.22
2023-03-18T21:37:15.751Z,100128.84
2023-03-18T21:39:42.633Z,100125.44
2023-03-18T21:42:15.778Z,100132.63
2023-03-18T21:44:42.366Z,100145.84
2023-03-18T21:47:16.151Z,100139.69
2023-03-18T21:49:46.457Z,100123.91
2023-03-18T21:52:15.830Z,100141.56
2023-03-18T21:54:42.298Z,100138.16
2023-03-18T21:57:14.651Z,100148.22
2023-03-18T21:59:41.351Z,100129.75
2023-03-18T22:02:19.587Z,100134.44
2023-03-18T22:04:46.057Z,100122.25
2023-03-18T22:07:13.400Z,100140.75
2023-03-18T22:09:39.942Z,100116.16
2023-03-18T22:12:13.007Z,100133.66
2023-03-18T22:14:39.498Z,100138.03
2023-03-18T22:17:19.158Z,100141.66
2023-03-18T22:19:45.811Z,100146.25
2023-03-18T22:22:16.849Z,100144.50
2023-03-18T22:24:43.761Z,100154.44
2023-03-18T22:27:18.180Z,100146.50
2023-03-18T22:29:44.857Z,100142.84
2023-03-18T22:32:30.719Z,100122.63
2023-03-18T22:35:00.148Z,100139.47
2023-03-18T22:37:27.449Z,100127.81
2023-03-18T22:39:53.969Z,100136.84
2023-03-18T22:42:23.316Z,100133.53
2023-03-18T22:44:50.658Z,100133.53
2023-03-18T22:47:19.220Z,100116.84
2023-03-18T22:49:47.565Z,100137.09
2023-03-18T22:52:20.054Z,100135.38
2023-03-18T22:54:47.067Z,100137.22
2023-03-18T22:57:18.659Z,100138.25
2023-03-18T22:59:45.229Z,100150.91
2023-03-18T23:02:16.460Z,100154.59
2023-03-18T23:04:43.005Z,100147.44
2023-03-18T23:07:23.504Z,100130.69
2023-03-18T23:09:56.479Z,100149.31
2023-03-18T23:12:24.922Z,100143.25
2023-03-18T23:14:52.289Z,100155.72
2023-03-18T23:17:21.489Z,100154.84
2023-03-18T23:19:48.659Z,100137.97
2023-03-18T23:22:21.801Z,100151.22
2023-03-18T23:24:48.283Z,100147.66
2023-03-18T23:27:14.902Z,100148.59
2023-03-18T23:29:41.383Z,100144.34
2023-03-18T23:32:08.975Z,100142.63
2023-03-18T23:34:35.662Z,100124.94
2023-03-18T23:37:02.232Z,100152.63
2023-03-18T23:39:31.827Z,100148.81
2023-03-18T23:41:59.740Z,100148.13
2023-03-18T23:44:28.615Z,100148.03
2023-03-18T23:46:55.118Z,100152.59
2023-03-18T23:49:21.538Z,100153.31
2023-03-18T23:51:48.004Z,100155.19
2023-03-18T23:54:14.496Z,100147.00
2023-03-18T23:56:42.415Z,100153.31
2023-03-18T23:59:08.827Z,100145.31
